Time;durP1;ratioP1;P1;durP2;ratioP2;P2;SDS_P1;SDS_P2;PMS_P1;PMS_P2;Temp;Humidity;BMP_temperature;BMP_pressure;BME280_temperature;BME280_humidity;BME280_pressure;Samples;Min_cycle;Max_cycle;Signal;HPM_P1;HPM_P2
2023/03/29 00:01:12;;;;;;;5.03;3.03;;;6.70;99.90;;;;;;5033111;28;20041;-67
2023/03/29 00:03:39;;;;;;;6.93;3.10;;;6.90;99.90;;;;;;5032928;28;20400;-68
2023/03/29 00:06:07;;;;;;;3.95;2.95;;;6.90;99.90;;;;;;5032902;28;20085;-67
2023/03/29 00:08:33;;;;;;;6.57;2.88;;;6.70;99.90;;;;;;5033347;28;20457;-67
2023/03/29 00:10:59;;;;;;;5.30;3.50;;;6.70;99.90;;;;;;5034302;28;20074;-66
2023/03/29 00:13:25;;;;;;;3.72;2.85;;;6.70;99.90;;;;;;5033109;28;20048;-67
2023/03/29 00:15:52;;;;;;;7.75;3.08;;;;;;;;;;5032732;28;20033;-67
2023/03/29 00:18:18;;;;;;;5.50;2.70;;;;;;;;;;5032820;28;20509;-68
2023/03/29 00:20:43;;;;;;;7.50;3.70;;;6.80;99.90;;;;;;5034204;28;20040;-67
2023/03/29 00:23:09;;;;;;;5.03;3.13;;;6.60;99.90;;;;;;5033012;28;20045;-67
2023/03/29 00:25:35;;;;;;;4.97;2.67;;;6.80;99.90;;;;;;5032583;28;20042;-67
2023/03/29 00:28:01;;;;;;;4.80;2.83;;;;;;;;;;5016282;28;20037;-67
2023/03/29 00:30:27;;;;;;;8.90;3.13;;;;;;;;;;5034241;28;20049;-67
2023/03/29 00:32:53;;;;;;;4.13;3.10;;;;;;;;;;5032742;28;20044;-67
2023/03/29 00:35:19;;;;;;;4.78;2.85;;;;;;;;;;5032384;28;20073;-68
2023/03/29 00:37:49;;;;;;;6.22;3.17;;;;;;;;;;5032862;28;20563;-67
2023/03/29 00:40:15;;;;;;;6.97;2.97;;;;;;;;;;5032574;28;20045;-67
2023/03/29 00:42:44;;;;;;;6.13;3.17;;;;;;;;;;5032408;28;20060;-67
2023/03/29 00:45:19;;;;;;;5.97;2.85;;;;;;;;;;5033449;28;20041;-67
2023/03/29 00:47:45;;;;;;;5.15;3.00;;;;;;;;;;5032444;28;20041;-67
2023/03/29 00:50:18;;;;;;;4.82;2.72;;;;;;;;;;5032694;28;20060;-67
2023/03/29 00:52:49;;;;;;;5.30;2.60;;;;;;;;;;5032417;28;20124;-67
2023/03/29 00:55:20;;;;;;;5.40;2.55;;;6.50;99.90;;;;;;5031824;28;20517;-68
2023/03/29 00:57:48;;;;;;;3.90;2.70;;;;;;;;;;5033680;28;20401;-68
2023/03/29 01:00:19;;;;;;;5.70;3.47;;;;;;;;;;5032242;28;20072;-68
2023/03/29 01:02:52;;;;;;;3.75;2.65;;;6.70;99.90;;;;;;5032377;28;20494;-68
2023/03/29 01:05:24;;;;;;;6.35;2.70;;;;;;;;;;5033076;28;20523;-67
2023/03/29 01:07:57;;;;;;;4.32;2.78;;;;;;;;;;5030941;28;20051;-67
2023/03/29 01:10:43;;;;;;;6.70;2.83;;;6.70;99.90;;;;;;5032059;28;20055;-67
2023/03/29 01:13:21;;;;;;;5.88;2.85;;;6.80;99.90;;;;;;5031895;28;20052;-67
2023/03/29 01:15:47;;;;;;;5.30;2.78;;;;;;;;;;5033183;28;20048;-67
2023/03/29 01:18:13;;;;;;;4.60;2.38;;;;;;;;;;5031832;28;20050;-67
2023/03/29 01:20:49;;;;;;;5.25;2.67;;;6.60;99.90;;;;;;5032169;28;20434;-67
2023/03/29 01:23:26;;;;;;;5.38;2.72;;;6.70;99.90;;;;;;5031605;28;20056;-67
2023/03/29 01:25:56;;;;;;;5.03;2.58;;;;;;;;;;5032744;28;20401;-67
2023/03/29 01:28:24;;;;;;;4.43;2.75;;;;;;;;;;5032921;28;20049;-67
2023/03/29 01:31:07;;;;;;;5.93;2.78;;;6.50;99.90;;;;;;5031513;28;20041;-67
2023/03/29 01:33:47;;;;;;;4.68;2.92;;;6.60;99.90;;;;;;5033732;28;20128;-67
2023/03/29 01:36:59;;;;;;;3.75;2.72;;;6.90;99.90;;;;;;5032137;28;20040;-67
2023/03/29 01:39:25;;;;;;;4.68;3.08;;;6.60;99.90;;;;;;5032738;28;20045;-67
2023/03/29 01:41:54;;;;;;;5.60;3.20;;;;;;;;;;5015212;28;20045;-67
2023/03/29 01:44:40;;;;;;;5.00;2.67;;;6.50;99.90;;;;;;5032359;28;20041;-67
2023/03/29 01:47:18;;;;;;;3.50;2.53;;;;;;;;;;5031596;28;20615;-67
2023/03/29 01:50:01;;;;;;;5.28;3.33;;;6.60;99.90;;;;;;5031575;28;20053;-67
2023/03/29 01:52:34;;;;;;;5.75;3.20;;;6.30;99.90;;;;;;5031158;28;20049;-67
2023/03/29 01:55:09;;;;;;;8.00;3.00;;;6.50;99.90;;;;;;5030900;28;20060;-67
2023/03/29 01:57:37;;;;;;;4.45;3.03;;;6.50;99.90;;;;;;5031234;28;20087;-68
2023/03/29 02:00:08;;;;;;;6.38;3.35;;;;;;;;;;5032899;28;20799;-67
2023/03/29 02:02:35;;;;;;;6.05;2.70;;;;;;;;;;5030981;28;20037;-66
2023/03/29 02:05:02;;;;;;;8.32;2.75;;;;;;;;;;5030777;28;20117;-67
2023/03/29 02:07:31;;;;;;;6.78;2.90;;;6.60;99.90;;;;;;5031037;28;20047;-67
2023/03/29 02:09:57;;;;;;;7.20;2.90;;;6.60;99.90;;;;;;5032207;28;20447;-67
2023/03/29 02:12:23;;;;;;;8.15;2.88;;;6.80;99.90;;;;;;5030738;28;20037;-67
2023/03/29 02:14:49;;;;;;;3.63;2.83;;;6.70;99.90;;;;;;5031820;28;20103;-67
2023/03/29 02:17:20;;;;;;;4.60;2.72;;;;;;;;;;5031850;28;20511;-67
2023/03/29 02:19:49;;;;;;;5.55;2.90;;;6.50;99.90;;;;;;5030398;28;20076;-67
2023/03/29 02:22:21;;;;;;;6.80;2.80;;;6.70;99.90;;;;;;5030909;28;20439;-67
2023/03/29 02:24:48;;;;;;;5.03;3.40;;;;;;;;;;5030642;28;20045;-67
2023/03/29 02:27:15;;;;;;;5.22;2.65;;;;;;;;;;5032155;28;20120;-67
2023/03/29 02:29:41;;;;;;;7.15;3.00;;;;;;;;;;5030546;28;20037;-67
2023/03/29 02:32:18;;;;;;;5.68;2.70;;;;;;;;;;5030483;28;20459;-67
2023/03/29 02:34:55;;;;;;;5.97;3.78;;;6.70;99.90;;;;;;5031668;28;20048;-67
2023/03/29 02:37:23;;;;;;;7.35;3.85;;;6.70;99.90;;;;;;5031737;28;20040;-66
2023/03/29 02:39:51;;;;;;;7.10;3.50;;;6.60;99.90;;;;;;5030277;28;20077;-67
2023/03/29 02:42:19;;;;;;;7.18;3.60;;;6.90;99.90;;;;;;5031808;28;20639;-67
2023/03/29 02:44:45;;;;;;;3.67;3.05;;;;;;;;;;5031525;28;20075;-67
2023/03/29 02:47:17;;;;;;;9.73;3.85;;;6.60;99.90;;;;;;5031129;28;20037;-67
2023/03/29 02:49:43;;;;;;;5.93;3.65;;;;;;;;;;5030311;28;20045;-67
2023/03/29 02:52:14;;;;;;;13.10;5.50;;;6.70;99.90;;;;;;5030274;28;20048;-67
2023/03/29 02:54:42;;;;;;;5.03;3.83;;;6.70;99.90;;;;;;5031362;28;20045;-67
2023/03/29 02:57:09;;;;;;;7.93;4.10;;;6.50;99.90;;;;;;5030305;28;20520;-67
2023/03/29 02:59:35;;;;;;;6.10;3.40;;;6.70;99.90;;;;;;5030114;28;20519;-67
2023/03/29 03:02:02;;;;;;;7.45;4.22;;;6.60;99.90;;;;;;5030420;28;20497;-67
2023/03/29 03:04:28;;;;;;;5.55;3.65;;;6.70;99.90;;;;;;5029861;28;20045;-67
2023/03/29 03:06:54;;;;;;;9.27;4.05;;;6.70;99.90;;;;;;5030464;28;20091;-67
2023/03/29 03:09:19;;;;;;;7.93;3.72;;;6.70;99.90;;;;;;5031508;28;20041;-67
2023/03/29 03:11:45;;;;;;;5.40;3.80;;;6.70;99.90;;;;;;5030124;28;20080;-66
2023/03/29 03:14:11;;;;;;;7.07;4.00;;;;;;;;;;5029912;28;20057;-66
2023/03/29 03:16:37;;;;;;;5.45;3.75;;;;;;;;;;5031537;28;20033;-67
2023/03/29 03:19:03;;;;;;;6.30;3.75;;;;;;;;;;5030924;28;20505;-67
2023/03/29 03:21:29;;;;;;;9.52;4.70;;;;;;;;;;5031472;28;20037;-67
2023/03/29 03:23:55;;;;;;;8.00;4.57;;;;;;;;;;5029755;28;20510;-66
2023/03/29 03:26:23;;;;;;;4.80;3.63;;;6.90;99.90;;;;;;5031392;28;20116;-66
2023/03/29 03:28:49;;;;;;;7.00;4.05;;;;;;;;;;5031097;28;20053;-67
2023/03/29 03:31:16;;;;;;;8.10;4.03;;;;;;;;;;5033420;28;20052;-67
2023/03/29 03:33:42;;;;;;;8.65;4.13;;;;;;;;;;5034943;28;20095;-67
2023/03/29 03:36:10;;;;;;;8.00;3.75;;;6.90;99.90;;;;;;5033535;28;20053;-66
2023/03/29 03:38:36;;;;;;;5.80;3.88;;;6.60;99.90;;;;;;5033582;28;20048;-67
2023/03/29 03:41:03;;;;;;;8.00;3.97;;;6.60;99.90;;;;;;5033582;28;20497;-66
2023/03/29 03:43:30;;;;;;;11.25;4.53;;;;;;;;;;5033407;28;20056;-67
2023/03/29 03:45:56;;;;;;;5.05;3.67;;;;;;;;;;5016853;28;20041;-66
2023/03/29 03:48:23;;;;;;;6.90;3.83;;;6.80;99.90;;;;;;5034722;28;20084;-67
2023/03/29 03:50:51;;;;;;;5.53;3.83;;;6.70;99.90;;;;;;5033654;28;20107;-67
2023/03/29 03:53:17;;;;;;;8.43;4.13;;;;;;;;;;5033314;28;20421;-66
2023/03/29 03:55:52;;;;;;;7.03;4.03;;;6.70;99.90;;;;;;5033094;28;20045;-66
2023/03/29 03:58:18;;;;;;;8.85;3.90;;;6.80;99.90;;;;;;5033318;28;20045;-66
2023/03/29 04:00:46;;;;;;;9.18;3.65;;;6.70;99.90;;;;;;5034465;28;20034;-67
2023/03/29 04:03:12;;;;;;;7.07;4.05;;;6.80;99.90;;;;;;5033295;28;20041;-67
2023/03/29 04:05:43;;;;;;;8.93;4.78;;;6.90;99.90;;;;;;5033031;28;20052;-67
2023/03/29 04:08:09;;;;;;;8.65;5.00;;;6.80;99.90;;;;;;5033480;28;20419;-66
2023/03/29 04:10:35;;;;;;;10.40;4.47;;;;;;;;;;5033133;28;20041;-67
2023/03/29 04:13:02;;;;;;;6.03;3.90;;;;;;;;;;5034178;28;20107;-67
2023/03/29 04:15:30;;;;;;;9.20;4.28;;;;;;;;;;5034191;28;20046;-67
2023/03/29 04:17:56;;;;;;;10.68;4.00;;;;;;;;;;5016410;28;20045;-67
2023/03/29 04:20:23;;;;;;;8.07;4.07;;;;;;;;;;5033239;28;20404;-67
2023/03/29 04:22:49;;;;;;;5.70;4.00;;;6.90;99.90;;;;;;5033856;28;20043;-67
2023/03/29 04:25:15;;;;;;;10.02;4.22;;;7.00;99.90;;;;;;5032424;28;20042;-66
2023/03/29 04:27:41;;;;;;;7.07;4.22;;;;;;;;;;5032553;28;20037;-67
2023/03/29 04:30:08;;;;;;;8.57;4.75;;;6.80;99.90;;;;;;5034199;28;20116;-67
2023/03/29 04:32:34;;;;;;;8.02;3.92;;;;;;;;;;5032720;28;20443;-67
2023/03/29 04:35:01;;;;;;;7.97;3.92;;;6.90;99.90;;;;;;5032414;28;20037;-67
2023/03/29 04:37:28;;;;;;;8.48;4.65;;;6.90;99.90;;;;;;5032625;28;20034;-66
2023/03/29 04:39:54;;;;;;;9.63;4.63;;;6.90;99.90;;;;;;5033764;28;20052;-67
2023/03/29 04:42:19;;;;;;;6.85;4.40;;;6.90;99.90;;;;;;5032039;28;20029;-67
2023/03/29 04:44:45;;;;;;;7.88;4.32;;;;;;;;;;5032168;28;20119;-66
2023/03/29 04:47:14;;;;;;;7.68;4.47;;;6.80;99.90;;;;;;5033719;28;20508;-67
2023/03/29 04:49:40;;;;;;;8.10;4.40;;;6.90;99.90;;;;;;5032706;28;20408;-66
2023/03/29 04:52:07;;;;;;;6.63;4.32;;;6.90;99.90;;;;;;5033736;28;20044;-67
2023/03/29 04:54:36;;;;;;;7.72;5.38;;;;;;;;;;5033362;28;20128;-66
2023/03/29 04:57:01;;;;;;;5.00;4.03;;;;;;;;;;5032118;28;20049;-67
2023/03/29 04:59:27;;;;;;;10.10;5.72;;;;;;;;;;5032084;28;20050;-66
2023/03/29 05:01:54;;;;;;;9.00;4.70;;;;;;;;;;5033558;28;20049;-66
2023/03/29 05:04:19;;;;;;;11.05;4.85;;;6.90;99.90;;;;;;5033260;28;20037;-67
2023/03/29 05:06:45;;;;;;;7.90;5.00;;;6.80;99.90;;;;;;5032437;28;20029;-66
2023/03/29 05:09:12;;;;;;;9.10;5.20;;;;;;;;;;5031902;28;20045;-68
2023/03/29 05:11:37;;;;;;;8.90;5.03;;;6.90;99.90;;;;;;5032456;28;20060;-67
2023/03/29 05:14:06;;;;;;;8.23;5.35;;;7.00;99.90;;;;;;5031772;28;20041;-66
2023/03/29 05:16:33;;;;;;;11.98;5.60;;;6.90;99.90;;;;;;5031944;28;20520;-67
2023/03/29 05:18:59;;;;;;;7.97;5.35;;;;;;;;;;5031707;28;20049;-67
2023/03/29 05:21:28;;;;;;;9.57;5.53;;;6.80;99.90;;;;;;5031648;28;20049;-67
2023/03/29 05:23:54;;;;;;;11.10;5.90;;;6.90;99.90;;;;;;5031414;28;20034;-66
2023/03/29 05:26:21;;;;;;;9.02;5.60;;;6.70;99.90;;;;;;5032863;28;20488;-67
2023/03/29 05:28:48;;;;;;;9.38;5.95;;;7.00;99.90;;;;;;5031650;28;20508;-67
2023/03/29 05:31:13;;;;;;;11.65;6.03;;;6.90;99.90;;;;;;5031721;28;20574;-67
2023/03/29 05:33:39;;;;;;;10.70;6.47;;;;;;;;;;5031494;28;20124;-66
2023/03/29 05:36:09;;;;;;;15.23;6.50;;;7.00;99.90;;;;;;5014823;28;20115;-66
2023/03/29 05:38:35;;;;;;;10.48;5.95;;;6.90;99.90;;;;;;5032479;28;20049;-67
2023/03/29 05:41:02;;;;;;;11.52;6.47;;;;;;;;;;5031382;28;20095;-67
2023/03/29 05:43:27;;;;;;;11.80;6.63;;;6.90;99.90;;;;;;5031270;28;20041;-67
2023/03/29 05:45:54;;;;;;;9.63;6.45;;;6.80;99.90;;;;;;5031170;28;20497;-66
2023/03/29 05:48:21;;;;;;;10.65;6.28;;;;;;;;;;5031260;28;20063;-67
2023/03/29 05:50:51;;;;;;;12.20;7.15;;;;;;;;;;5031320;28;20493;-65
2023/03/29 05:53:17;;;;;;;13.23;7.10;;;;;;;;;;5031741;28;20046;-67
2023/03/29 05:55:43;;;;;;;10.40;6.70;;;6.90;99.90;;;;;;5031004;28;20095;-67
2023/03/29 05:58:11;;;;;;;15.05;7.60;;;6.80;99.90;;;;;;5031044;28;20037;-67
2023/03/29 06:00:37;;;;;;;14.00;7.43;;;;;;;;;;5014744;28;20044;-67
2023/03/29 06:03:04;;;;;;;16.38;7.22;;;6.90;99.90;;;;;;5030969;28;20067;-66
2023/03/29 06:05:38;;;;;;;10.55;6.47;;;6.80;99.90;;;;;;5032132;28;20071;-66
2023/03/29 06:08:04;;;;;;;11.32;7.10;;;7.00;99.90;;;;;;5027361;28;20077;-67
2023/03/29 06:10:30;;;;;;;12.00;6.88;;;;;;;;;;5029237;28;20095;-67
2023/03/29 06:12:56;;;;;;;10.73;7.30;;;;;;;;;;5008498;28;20516;-66
2023/03/29 06:15:23;;;;;;;11.57;7.03;;;;;;;;;;5022139;28;20045;-63
2023/03/29 06:17:49;;;;;;;12.50;7.25;;;;;;;;;;5028262;28;20552;-67
2023/03/29 06:20:15;;;;;;;11.30;7.47;;;7.10;99.90;;;;;;5024416;28;20125;-66
2023/03/29 06:22:41;;;;;;;9.82;6.40;;;7.10;99.90;;;;;;5000078;28;20038;-66
2023/03/29 06:25:09;;;;;;;16.55;7.57;;;;;;;;;;5023576;28;20033;-65
2023/03/29 06:27:35;;;;;;;13.35;8.02;;;;;;;;;;5022622;28;20041;-67
2023/03/29 06:30:02;;;;;;;11.95;6.57;;;;;;;;;;5013002;28;20030;-66
2023/03/29 06:32:28;;;;;;;12.18;7.32;;;;;;;;;;5027498;28;20056;-66
2023/03/29 06:34:55;;;;;;;10.27;6.78;;;;;;;;;;5026499;28;20457;-67
2023/03/29 06:37:22;;;;;;;12.05;7.03;;;;;;;;;;5003319;28;20045;-68
2023/03/29 06:39:52;;;;;;;14.65;7.00;;;;;;;;;;5016784;28;20443;-67
2023/03/29 06:42:19;;;;;;;10.90;7.05;;;7.30;99.90;;;;;;5011366;28;20135;-67
2023/03/29 06:44:45;;;;;;;15.90;7.90;;;;;;;;;;5011699;28;20034;-67
2023/03/29 06:47:12;;;;;;;12.60;6.85;;;7.20;99.90;;;;;;5010757;28;20176;-68
2023/03/29 06:49:38;;;;;;;9.52;6.30;;;;;;;;;;5012156;28;20052;-67
2023/03/29 06:52:04;;;;;;;9.55;6.65;;;7.30;99.90;;;;;;5010641;28;20053;-67
2023/03/29 06:54:30;;;;;;;11.73;6.93;;;7.30;99.90;;;;;;5011937;28;20113;-68
2023/03/29 06:56:56;;;;;;;11.68;6.13;;;7.30;99.90;;;;;;5011641;28;20561;-68
2023/03/29 06:59:22;;;;;;;9.32;5.97;;;7.30;99.90;;;;;;5010194;28;20563;-68
2023/03/29 07:01:48;;;;;;;8.95;6.60;;;7.20;99.90;;;;;;5010272;28;20045;-69
2023/03/29 07:04:15;;;;;;;11.82;6.85;;;;;;;;;;4994171;28;20160;-69
2023/03/29 07:06:47;;;;;;;11.10;6.93;;;7.40;99.90;;;;;;5013902;28;20081;-68
2023/03/29 07:09:14;;;;;;;10.90;7.07;;;;;;;;;;5014426;28;20092;-68
2023/03/29 07:11:40;;;;;;;11.88;7.20;;;;;;;;;;5014534;28;20133;-69
2023/03/29 07:14:06;;;;;;;12.43;7.43;;;;;;;;;;5020720;28;20116;-69
2023/03/29 07:16:35;;;;;;;10.35;6.55;;;;;;;;;;5033877;28;20049;-69
2023/03/29 07:19:02;;;;;;;15.90;8.50;;;7.50;99.90;;;;;;5033948;28;20064;-68
2023/03/29 07:21:29;;;;;;;10.82;6.97;;;7.60;99.90;;;;;;5001307;28;20048;-68
2023/03/29 07:23:57;;;;;;;12.85;7.05;;;;;;;;;;5033843;28;20041;-67
2023/03/29 07:26:23;;;;;;;10.40;6.97;;;7.70;99.90;;;;;;5031582;28;20038;-67
2023/03/29 07:28:49;;;;;;;11.20;7.20;;;;;;;;;;5025738;28;20052;-68
2023/03/29 07:31:16;;;;;;;12.18;7.40;;;;;;;;;;5023000;28;20061;-68
2023/03/29 07:33:43;;;;;;;15.15;7.95;;;7.90;99.90;;;;;;5033787;28;20507;-68
2023/03/29 07:36:09;;;;;;;12.02;7.78;;;7.90;99.90;;;;;;5033241;28;20045;-67
2023/03/29 07:38:36;;;;;;;11.52;7.18;;;8.00;99.90;;;;;;5017032;28;20045;-67
2023/03/29 07:41:04;;;;;;;11.27;7.25;;;7.90;99.90;;;;;;5033783;28;20515;-67
2023/03/29 07:43:30;;;;;;;11.70;7.43;;;;;;;;;;5032836;28;20048;-67
2023/03/29 07:46:00;;;;;;;12.98;7.55;;;8.00;99.90;;;;;;5022866;28;20038;-68
2023/03/29 07:48:25;;;;;;;15.70;7.97;;;8.00;99.90;;;;;;5030650;28;20411;-67
2023/03/29 07:50:51;;;;;;;18.88;8.52;;;8.20;99.90;;;;;;5025924;28;20073;-68
2023/03/29 07:53:17;;;;;;;11.90;7.82;;;8.20;99.90;;;;;;5013678;28;20048;-68
2023/03/29 07:55:46;;;;;;;16.90;8.57;;;;;;;;;;5013666;28;20049;-68
2023/03/29 07:58:13;;;;;;;10.45;6.97;;;;;;;;;;5013872;28;20041;-67
2023/03/29 08:00:40;;;;;;;14.07;7.78;;;;;;;;;;5030850;28;20037;-68
2023/03/29 08:03:07;;;;;;;17.15;8.15;;;;;;;;;;5034406;28;20045;-68
2023/03/29 08:05:32;;;;;;;11.70;7.38;;;8.10;99.90;;;;;;5034676;28;20045;-68
2023/03/29 08:07:58;;;;;;;17.15;8.15;;;8.20;99.90;;;;;;5016700;28;20111;-68
2023/03/29 08:10:25;;;;;;;13.55;7.80;;;8.50;99.90;;;;;;5034328;28;20048;-68
2023/03/29 08:12:51;;;;;;;12.32;7.35;;;8.40;99.90;;;;;;5033103;28;20508;-67
2023/03/29 08:15:17;;;;;;;14.18;6.78;;;8.30;99.90;;;;;;5024004;28;20081;-68
2023/03/29 08:17:43;;;;;;;11.23;7.35;;;;;;;;;;5013888;28;20505;-68
2023/03/29 08:20:11;;;;;;;12.95;7.55;;;8.50;99.90;;;;;;5013074;28;20045;-68
2023/03/29 08:22:37;;;;;;;13.30;7.65;;;8.50;99.90;;;;;;5014201;28;20398;-68
2023/03/29 08:25:04;;;;;;;16.15;9.00;;;;;;;;;;5012468;28;20044;-68
2023/03/29 08:27:30;;;;;;;15.52;8.73;;;8.60;99.90;;;;;;5013240;28;20505;-68
2023/03/29 08:29:55;;;;;;;19.33;10.02;;;8.60;99.90;;;;;;5014365;28;20048;-68
2023/03/29 08:32:21;;;;;;;12.52;8.73;;;8.70;99.90;;;;;;5012533;28;20049;-67
2023/03/29 08:34:47;;;;;;;16.08;8.82;;;8.80;99.90;;;;;;5012655;28;20629;-68
2023/03/29 08:37:13;;;;;;;16.40;9.40;;;;;;;;;;5012774;28;20133;-68
2023/03/29 08:39:39;;;;;;;14.68;8.63;;;;;;;;;;5012580;28;20050;-68
2023/03/29 08:42:30;;;;;;;16.75;8.85;;;8.70;99.90;;;;;;5014086;28;20041;-68
2023/03/29 08:45:01;;;;;;;15.52;8.48;;;;;;;;;;5012448;28;20100;-68
2023/03/29 08:47:30;;;;;;;17.88;8.85;;;9.00;99.90;;;;;;5023248;28;20038;-68
2023/03/29 08:49:56;;;;;;;11.45;8.13;;;9.00;99.90;;;;;;5023207;28;20047;-68
2023/03/29 08:52:30;;;;;;;14.23;8.07;;;;;;;;;;5022533;28;20038;-68
2023/03/29 08:54:58;;;;;;;11.68;7.38;;;9.20;99.90;;;;;;5021002;28;20038;-68
2023/03/29 08:57:27;;;;;;;13.93;7.82;;;;;;;;;;5026792;28;20444;-68
2023/03/29 08:59:56;;;;;;;13.40;8.23;;;9.20;99.90;;;;;;5029492;28;20049;-68
2023/03/29 09:02:25;;;;;;;11.73;7.50;;;9.50;99.90;;;;;;5018361;28;20069;-68
2023/03/29 09:04:55;;;;;;;16.50;7.88;;;9.50;99.90;;;;;;5020643;28;20120;-68
2023/03/29 09:07:22;;;;;;;14.07;7.63;;;;;;;;;;5006132;28;20037;-68
2023/03/29 09:09:47;;;;;;;13.32;8.95;;;9.40;99.90;;;;;;5005239;28;20048;-69
2023/03/29 09:12:37;;;;;;;14.27;7.75;;;9.60;99.90;;;;;;5017392;28;20510;-69
2023/03/29 09:15:20;;;;;;;16.20;8.02;;;9.70;99.90;;;;;;5020908;28;20037;-69
2023/03/29 09:17:58;;;;;;;13.53;7.73;;;9.90;99.90;;;;;;5022792;28;20041;-68
2023/03/29 09:20:37;;;;;;;17.10;7.93;;;9.80;99.90;;;;;;5013222;28;20042;-68
2023/03/29 09:23:38;;;;;;;22.90;9.77;;;9.90;99.90;;;;;;5017441;28;20599;-69
2023/03/29 09:26:05;;;;;;;15.77;8.68;;;;;;;;;;4984679;28;20045;-68
2023/03/29 09:28:31;;;;;;;14.02;7.75;;;;;;;;;;5021725;28;20041;-69
2023/03/29 09:31:02;;;;;;;17.02;8.95;;;;;;;;;;5005842;28;20077;-67
2023/03/29 09:33:54;;;;;;;16.58;7.82;;;10.00;99.90;;;;;;5021069;28;20088;-69
2023/03/29 09:36:24;;;;;;;13.27;8.68;;;;;;;;;;5011272;28;20054;-69
2023/03/29 09:38:53;;;;;;;20.90;8.85;;;10.20;99.90;;;;;;5025580;28;20047;-68
2023/03/29 09:41:41;;;;;;;14.85;8.70;;;10.20;99.90;;;;;;5010524;28;20069;-69
2023/03/29 09:44:17;;;;;;;15.57;9.15;;;10.30;99.90;;;;;;5022181;28;20041;-69
2023/03/29 09:46:45;;;;;;;18.77;9.50;;;;;;;;;;5003996;28;20037;-69
2023/03/29 09:49:17;;;;;;;20.48;9.07;;;10.20;99.90;;;;;;5022617;28;20048;-69
2023/03/29 09:51:46;;;;;;;17.50;8.98;;;;;;;;;;5022212;28;20080;-69
2023/03/29 09:54:11;;;;;;;19.02;10.75;;;10.50;99.90;;;;;;5019914;28;20494;-68
2023/03/29 09:56:38;;;;;;;19.40;9.25;;;10.30;99.90;;;;;;5020937;28;20099;-69
2023/03/29 09:59:04;;;;;;;17.13;9.27;;;10.40;99.90;;;;;;5021542;28;20048;-69
2023/03/29 10:01:36;;;;;;;13.43;9.35;;;10.40;99.90;;;;;;5025288;28;20037;-68
2023/03/29 10:04:06;;;;;;;18.17;9.40;;;10.70;99.90;;;;;;5014461;28;20390;-68
2023/03/29 10:06:33;;;;;;;16.08;9.70;;;10.60;99.90;;;;;;5032126;28;20037;-68
2023/03/29 10:08:59;;;;;;;17.13;9.93;;;10.70;99.90;;;;;;5030589;28;20041;-69
2023/03/29 10:11:34;;;;;;;20.27;9.75;;;10.80;99.90;;;;;;5024678;28;20045;-68
2023/03/29 10:14:02;;;;;;;17.10;10.68;;;;;;;;;;5023044;28;20049;-69
2023/03/29 10:16:33;;;;;;;18.95;10.05;;;10.80;99.90;;;;;;5017536;28;20137;-68
2023/03/29 10:19:24;;;;;;;19.13;10.48;;;11.00;99.90;;;;;;5010701;28;20134;-69
2023/03/29 10:21:52;;;;;;;21.40;11.80;;;11.20;99.90;;;;;;5010775;28;20038;-68
2023/03/29 10:24:24;;;;;;;22.98;11.48;;;11.20;99.90;;;;;;5010539;28;20046;-68
2023/03/29 10:26:58;;;;;;;25.17;11.93;;;11.10;99.90;;;;;;5010949;28;20038;-68
2023/03/29 10:29:25;;;;;;;22.08;12.70;;;11.40;99.90;;;;;;5011004;28;20685;-69
2023/03/29 10:31:51;;;;;;;21.55;12.63;;;;;;;;;;5011988;28;20077;-68
2023/03/29 10:34:18;;;;;;;20.75;11.90;;;11.50;99.90;;;;;;5010490;28;20052;-68
2023/03/29 10:36:59;;;;;;;25.63;14.65;;;11.40;99.90;;;;;;5012273;28;20449;-69
2023/03/29 10:39:31;;;;;;;24.05;13.00;;;11.50;99.90;;;;;;5010507;28;20046;-68
2023/03/29 10:41:58;;;;;;;20.42;12.30;;;11.60;99.90;;;;;;5010720;28;20030;-68
2023/03/29 10:44:31;;;;;;;18.70;12.13;;;11.70;99.90;;;;;;5011481;28;20042;-69
2023/03/29 10:47:18;;;;;;;27.33;15.05;;;11.70;99.90;;;;;;5010694;28;20064;-69
2023/03/29 10:49:49;;;;;;;25.63;13.82;;;11.90;99.90;;;;;;4994207;28;20052;-69
2023/03/29 10:52:16;;;;;;;19.55;12.48;;;;;;;;;;5009151;28;20065;-68
2023/03/29 10:54:42;;;;;;;22.35;12.93;;;;;;;;;;5022253;28;20084;-69
2023/03/29 10:57:12;;;;;;;27.35;13.77;;;11.80;99.90;;;;;;5017453;28;20052;-69
2023/03/29 11:00:08;;;;;;;21.30;13.80;;;11.80;99.90;;;;;;5027393;28;20528;-69
2023/03/29 11:02:47;;;;;;;23.67;13.70;;;;;;;;;;5017338;28;20050;-69
2023/03/29 11:05:50;;;;;;;27.05;14.85;;;11.80;99.90;;;;;;5008376;28;20042;-70
2023/03/29 11:08:16;;;;;;;21.85;13.60;;;;;;;;;;5019731;28;20052;-68
2023/03/29 11:11:16;;;;;;;21.77;14.48;;;12.00;99.90;;;;;;5009543;28;20046;-70
2023/03/29 11:14:03;;;;;;;26.83;15.30;;;12.00;99.90;;;;;;5022139;28;20041;-71
2023/03/29 11:16:29;;;;;;;25.80;15.02;;;;;;;;;;5024465;28;20267;-70
2023/03/29 11:19:03;;;;;;;23.52;14.45;;;11.80;99.90;;;;;;5023828;28;20049;-69
2023/03/29 11:21:43;;;;;;;24.15;15.40;;;12.10;99.90;;;;;;5026074;28;20400;-70
2023/03/29 11:25:00;;;;;;;23.38;14.38;;;12.00;99.90;;;;;;5016463;28;20572;-71
2023/03/29 11:27:46;;;;;;;26.92;15.55;;;11.80;99.90;;;;;;4957801;28;20076;-67
2023/03/29 11:30:34;;;;;;;21.60;14.63;;;;;;;;;;5023597;28;20791;-70
2023/03/29 11:33:10;;;;;;;25.40;15.25;;;12.30;99.90;;;;;;4994462;28;20128;-70
2023/03/29 11:35:58;;;;;;;23.73;14.82;;;12.20;99.90;;;;;;5019643;28;20049;-70
2023/03/29 11:38:46;;;;;;;22.42;15.27;;;12.30;99.90;;;;;;5008665;28;20452;-70
2023/03/29 11:41:27;;;;;;;23.00;14.88;;;12.50;99.90;;;;;;5018616;28;20108;-70
2023/03/29 11:44:05;;;;;;;22.05;14.18;;;12.40;99.90;;;;;;5012875;28;20042;-70
2023/03/29 11:46:57;;;;;;;23.25;14.63;;;12.40;99.90;;;;;;5023161;28;20033;-70
2023/03/29 11:49:31;;;;;;;21.60;14.45;;;12.50;99.90;;;;;;5011364;28;20059;-70
2023/03/29 11:52:25;;;;;;;21.92;14.00;;;12.50;99.90;;;;;;5021326;28;20033;-71
2023/03/29 11:54:52;;;;;;;;;;;12.60;99.90;;;;;;5018730;28;20057;-70
2023/03/29 11:57:27;;;;;;;20.17;14.55;;;12.50;99.90;;;;;;5013445;28;19928;-70
2023/03/29 12:00:03;;;;;;;28.50;15.23;;;12.80;99.90;;;;;;5013405;28;20078;-70
2023/03/29 12:02:34;;;;;;;24.95;15.52;;;12.90;99.90;;;;;;4996927;28;20125;-71
2023/03/29 12:05:10;;;;;;;26.05;15.90;;;12.80;99.90;;;;;;5018890;28;20397;-71
2023/03/29 12:07:42;;;;;;;26.00;15.10;;;13.00;99.90;;;;;;5024100;28;20042;-70
2023/03/29 12:10:17;;;;;;;25.23;16.20;;;13.10;99.90;;;;;;5023825;28;20069;-70
2023/03/29 12:13:00;;;;;;;21.55;13.70;;;12.80;99.90;;;;;;5023172;28;20038;-71
2023/03/29 12:15:31;;;;;;;21.23;15.30;;;12.80;99.90;;;;;;5016563;28;20046;-71
2023/03/29 12:18:23;;;;;;;25.88;15.32;;;12.80;99.90;;;;;;5021447;28;20037;-71
2023/03/29 12:20:58;;;;;;;26.13;14.63;;;13.00;99.90;;;;;;5020836;28;20038;-71
2023/03/29 12:23:24;;;;;;;24.35;14.82;;;;;;;;;;5027592;28;20034;-71
2023/03/29 12:26:18;;;;;;;21.30;14.25;;;12.80;99.90;;;;;;5022261;28;20041;-71
2023/03/29 12:28:44;;;;;;;20.05;14.57;;;13.00;99.90;;;;;;5020429;28;20426;-72
2023/03/29 12:31:41;;;;;;;21.85;14.60;;;13.10;99.90;;;;;;5018387;28;20747;-71
2023/03/29 12:34:37;;;;;;;22.17;13.98;;;13.10;99.90;;;;;;5023305;28;20034;-71
2023/03/29 12:37:29;;;;;;;25.42;15.10;;;13.00;99.90;;;;;;5023539;28;20048;-72
2023/03/29 12:40:10;;;;;;;20.33;14.65;;;13.30;99.90;;;;;;5028557;28;20042;-71
2023/03/29 12:42:47;;;;;;;19.67;14.60;;;13.10;99.90;;;;;;5031049;28;20068;-72
2023/03/29 12:45:20;;;;;;;19.80;13.52;;;13.00;99.90;;;;;;5032122;28;20048;-71
2023/03/29 12:47:47;;;;;;;19.67;14.10;;;12.80;99.90;;;;;;5015874;28;20041;-71
2023/03/29 12:50:27;;;;;;;19.65;13.80;;;13.00;99.90;;;;;;5032472;28;20045;-71
2023/03/29 12:53:16;;;;;;;23.02;14.30;;;12.90;99.90;;;;;;5032354;28;20037;-71
2023/03/29 12:55:42;;;;;;;19.67;13.73;;;;;;;;;;5032372;28;20141;-71
2023/03/29 12:58:41;;;;;;;21.10;13.93;;;13.00;99.90;;;;;;5032221;28;20421;-72
2023/03/29 13:01:29;;;;;;;21.75;13.90;;;13.00;99.90;;;;;;5044252;28;20505;-71
2023/03/29 13:04:19;;;;;;;21.05;15.15;;;13.10;99.90;;;;;;5050154;28;20033;-70
2023/03/29 13:06:47;;;;;;;20.17;14.43;;;13.30;99.90;;;;;;5033970;28;20044;-71
2023/03/29 13:09:28;;;;;;;23.30;15.60;;;13.20;99.90;;;;;;5052191;28;20102;-71
2023/03/29 13:12:14;;;;;;;17.88;13.38;;;13.00;99.90;;;;;;5050656;28;20045;-71
2023/03/29 13:14:55;;;;;;;21.67;14.60;;;13.20;99.90;;;;;;5034643;28;20574;-71
2023/03/29 13:17:48;;;;;;;19.63;13.48;;;13.40;99.90;;;;;;5053188;28;20059;-71
2023/03/29 13:20:33;;;;;;;21.35;13.27;;;13.40;99.90;;;;;;5053096;28;20041;-71
2023/03/29 13:23:24;;;;;;;21.27;13.18;;;13.40;99.90;;;;;;5051736;28;20040;-71
2023/03/29 13:26:25;;;;;;;21.92;13.10;;;13.40;99.90;;;;;;5051527;28;20072;-71
2023/03/29 13:29:32;;;;;;;25.58;13.88;;;13.50;99.90;;;;;;4998069;28;20100;-71
2023/03/29 13:32:19;;;;;;;18.55;13.48;;;13.50;99.90;;;;;;5003415;28;20060;-71
2023/03/29 13:34:56;;;;;;;24.55;14.25;;;13.40;99.90;;;;;;5051539;28;20496;-70
2023/03/29 13:37:51;;;;;;;21.85;13.60;;;13.40;99.90;;;;;;5051470;28;20037;-71
2023/03/29 13:40:31;;;;;;;16.60;11.85;;;13.50;99.90;;;;;;5051369;28;20128;-70
2023/03/29 13:43:18;;;;;;;22.10;13.40;;;13.80;99.90;;;;;;5051294;28;20120;-71